sensor_id;sensor_type;location;lat;lon;timestamp;temperature;humidity
10451;DHT22;5273;51.290;6.918;2023-02-15T00:08:48;5.50;98.60
10451;DHT22;5273;51.290;6.918;2023-02-15T00:11:17;5.40;98.60
10451;DHT22;5273;51.290;6.918;2023-02-15T00:23:56;5.40;98.80
10451;DHT22;5273;51.290;6.918;2023-02-15T00:41:08;5.00;99.30
10451;DHT22;5273;51.290;6.918;2023-02-15T00:43:35;4.90;99.40
10451;DHT22;5273;51.290;6.918;2023-02-15T00:46:03;4.90;99.80
10451;DHT22;5273;51.290;6.918;2023-02-15T00:50:59;6.80;99.90
10451;DHT22;5273;51.290;6.918;2023-02-15T00:53:27;4.80;99.90
10451;DHT22;5273;51.290;6.918;2023-02-15T00:58:23;4.70;99.90
10451;DHT22;5273;51.290;6.918;2023-02-15T01:00:51;4.80;99.90
10451;DHT22;5273;51.290;6.918;2023-02-15T01:03:19;4.70;99.90
10451;DHT22;5273;51.290;6.918;2023-02-15T01:05:47;4.70;99.90
10451;DHT22;5273;51.290;6.918;2023-02-15T01:15:38;4.70;99.90
10451;DHT22;5273;51.290;6.918;2023-02-15T01:20:35;4.70;99.90
10451;DHT22;5273;51.290;6.918;2023-02-15T01:23:04;4.70;99.90
10451;DHT22;5273;51.290;6.918;2023-02-15T01:25:33;4.60;99.90
10451;DHT22;5273;51.290;6.918;2023-02-15T01:32:56;4.70;99.90
10451;DHT22;5273;51.290;6.918;2023-02-15T01:40:18;4.70;99.90
10451;DHT22;5273;51.290;6.918;2023-02-15T01:45:19;4.70;99.90
10451;DHT22;5273;51.290;6.918;2023-02-15T01:47:51;4.60;99.90
10451;DHT22;5273;51.290;6.918;2023-02-15T01:50:24;4.70;99.90
10451;DHT22;5273;51.290;6.918;2023-02-15T01:52:57;4.70;99.90
10451;DHT22;5273;51.290;6.918;2023-02-15T01:55:29;4.60;99.90
10451;DHT22;5273;51.290;6.918;2023-02-15T02:02:57;4.70;99.90
10451;DHT22;5273;51.290;6.918;2023-02-15T02:05:25;4.70;99.90
10451;DHT22;5273;51.290;6.918;2023-02-15T02:07:54;4.60;99.90
10451;DHT22;5273;51.290;6.918;2023-02-15T02:10:23;4.60;99.90
10451;DHT22;5273;51.290;6.918;2023-02-15T02:12:53;4.60;99.90
10451;DHT22;5273;51.290;6.918;2023-02-15T02:15:24;4.50;99.90
10451;DHT22;5273;51.290;6.918;2023-02-15T02:18:04;4.50;99.90
10451;DHT22;5273;51.290;6.918;2023-02-15T02:21:05;4.50;99.90
10451;DHT22;5273;51.290;6.918;2023-02-15T02:23:51;4.50;99.90
10451;DHT22;5273;51.290;6.918;2023-02-15T02:30:02;4.40;99.90
10451;DHT22;5273;51.290;6.918;2023-02-15T02:32:50;4.40;99.90
10451;DHT22;5273;51.290;6.918;2023-02-15T02:35:22;4.40;99.90
10451;DHT22;5273;51.290;6.918;2023-02-15T02:38:00;4.40;99.90
10451;DHT22;5273;51.290;6.918;2023-02-15T02:40:35;4.40;99.90
10451;DHT22;5273;51.290;6.918;2023-02-15T02:43:10;4.40;99.90
10451;DHT22;5273;51.290;6.918;2023-02-15T02:45:41;4.40;99.90
10451;DHT22;5273;51.290;6.918;2023-02-15T02:48:15;4.40;99.90
10451;DHT22;5273;51.290;6.918;2023-02-15T02:53:10;4.40;99.90
10451;DHT22;5273;51.290;6.918;2023-02-15T02:55:40;4.40;99.90
10451;DHT22;5273;51.290;6.918;2023-02-15T02:58:13;4.40;99.90
10451;DHT22;5273;51.290;6.918;2023-02-15T03:00:50;4.50;99.90
10451;DHT22;5273;51.290;6.918;2023-02-15T03:03:21;4.50;99.90
10451;DHT22;5273;51.290;6.918;2023-02-15T03:05:54;4.40;99.90
10451;DHT22;5273;51.290;6.918;2023-02-15T03:08:26;4.50;99.90
10451;DHT22;5273;51.290;6.918;2023-02-15T03:10:55;4.40;99.90
10451;DHT22;5273;51.290;6.918;2023-02-15T03:13:23;4.40;99.90
10451;DHT22;5273;51.290;6.918;2023-02-15T03:15:51;4.40;99.90
10451;DHT22;5273;51.290;6.918;2023-02-15T03:18:42;4.40;99.90
10451;DHT22;5273;51.290;6.918;2023-02-15T03:21:10;4.40;99.90
10451;DHT22;5273;51.290;6.918;2023-02-15T03:23:49;4.40;99.90
10451;DHT22;5273;51.290;6.918;2023-02-15T03:28:46;4.40;99.90
10451;DHT22;5273;51.290;6.918;2023-02-15T03:31:15;4.40;99.90
10451;DHT22;5273;51.290;6.918;2023-02-15T03:33:49;4.40;99.90
10451;DHT22;5273;51.290;6.918;2023-02-15T03:36:20;4.40;99.90
10451;DHT22;5273;51.290;6.918;2023-02-15T03:38:51;4.80;99.90
10451;DHT22;5273;51.290;6.918;2023-02-15T03:41:20;4.40;99.90
10451;DHT22;5273;51.290;6.918;2023-02-15T03:43:51;4.40;99.90
10451;DHT22;5273;51.290;6.918;2023-02-15T03:46:22;4.40;99.90
10451;DHT22;5273;51.290;6.918;2023-02-15T03:48:55;4.40;99.90
10451;DHT22;5273;51.290;6.918;2023-02-15T03:51:26;4.40;99.90
10451;DHT22;5273;51.290;6.918;2023-02-15T03:54:01;6.20;99.90
10451;DHT22;5273;51.290;6.918;2023-02-15T04:01:47;4.30;99.90
10451;DHT22;5273;51.290;6.918;2023-02-15T04:04:28;4.30;99.90
10451;DHT22;5273;51.290;6.918;2023-02-15T04:19:49;4.20;99.90
10451;DHT22;5273;51.290;6.918;2023-02-15T04:27:48;4.10;99.90
10451;DHT22;5273;51.290;6.918;2023-02-15T04:30:17;4.10;99.90
10451;DHT22;5273;51.290;6.918;2023-02-15T04:32:45;4.10;99.90
10451;DHT22;5273;51.290;6.918;2023-02-15T04:35:13;4.10;99.90
10451;DHT22;5273;51.290;6.918;2023-02-15T04:37:41;4.10;99.90
10451;DHT22;5273;51.290;6.918;2023-02-15T04:40:10;4.10;99.90
10451;DHT22;5273;51.290;6.918;2023-02-15T04:45:05;4.10;99.90
10451;DHT22;5273;51.290;6.918;2023-02-15T04:52:27;4.10;99.90
10451;DHT22;5273;51.290;6.918;2023-02-15T05:09:38;4.10;99.90
10451;DHT22;5273;51.290;6.918;2023-02-15T05:27:10;4.00;99.90
10451;DHT22;5273;51.290;6.918;2023-02-15T05:42:12;3.90;99.90
10451;DHT22;5273;51.290;6.918;2023-02-15T05:59:24;3.90;99.90
10451;DHT22;5273;51.290;6.918;2023-02-15T06:16:35;3.70;99.90
10451;DHT22;5273;51.290;6.918;2023-02-15T06:19:02;3.70;99.90
10451;DHT22;5273;51.290;6.918;2023-02-15T06:21:30;3.70;99.90
10451;DHT22;5273;51.290;6.918;2023-02-15T06:33:46;3.70;99.90
10451;DHT22;5273;51.290;6.918;2023-02-15T06:50:57;3.70;99.90
10451;DHT22;5273;51.290;6.918;2023-02-15T07:03:13;4.40;99.90
10451;DHT22;5273;51.290;6.918;2023-02-15T07:08:10;4.90;99.80
10451;DHT22;5273;51.290;6.918;2023-02-15T07:17:57;6.40;97.10
10451;DHT22;5273;51.290;6.918;2023-02-15T07:25:20;7.90;92.80
10451;DHT22;5273;51.290;6.918;2023-02-15T07:30:16;8.80;91.40
10451;DHT22;5273;51.290;6.918;2023-02-15T07:40:23;11.10;80.90
10451;DHT22;5273;51.290;6.918;2023-02-15T07:57:42;13.70;60.80
10451;DHT22;5273;51.290;6.918;2023-02-15T08:00:11;14.40;59.20
10451;DHT22;5273;51.290;6.918;2023-02-15T08:14:55;16.40;49.70
10451;DHT22;5273;51.290;6.918;2023-02-15T08:29:38;18.20;44.20
10451;DHT22;5273;51.290;6.918;2023-02-15T08:32:10;18.70;43.80
10451;DHT22;5273;51.290;6.918;2023-02-15T08:34:39;19.00;42.70
10451;DHT22;5273;51.290;6.918;2023-02-15T08:49:29;18.40;41.40
10451;DHT22;5273;51.290;6.918;2023-02-15T08:59:19;19.20;38.80
10451;DHT22;5273;51.290;6.918;2023-02-15T09:01:48;19.70;37.60
10451;DHT22;5273;51.290;6.918;2023-02-15T09:06:46;19.80;36.40
10451;DHT22;5273;51.290;6.918;2023-02-15T09:11:42;19.90;36.60
10451;DHT22;5273;51.290;6.918;2023-02-15T09:14:11;20.20;36.70
10451;DHT22;5273;51.290;6.918;2023-02-15T09:16:39;20.20;35.20
10451;DHT22;5273;51.290;6.918;2023-02-15T09:19:07;20.40;36.20
10451;DHT22;5273;51.290;6.918;2023-02-15T09:21:36;21.00;35.30
10451;DHT22;5273;51.290;6.918;2023-02-15T09:24:07;19.10;32.00
10451;DHT22;5273;51.290;6.918;2023-02-15T09:26:35;22.00;33.60
10451;DHT22;5273;51.290;6.918;2023-02-15T09:31:32;21.70;32.80
10451;DHT22;5273;51.290;6.918;2023-02-15T09:34:00;21.70;33.10
10451;DHT22;5273;51.290;6.918;2023-02-15T09:36:29;21.90;32.50
10451;DHT22;5273;51.290;6.918;2023-02-15T09:38:58;21.80;31.80
10451;DHT22;5273;51.290;6.918;2023-02-15T09:44:50;22.20;32.50
10451;DHT22;5273;51.290;6.918;2023-02-15T09:47:31;22.20;31.60
10451;DHT22;5273;51.290;6.918;2023-02-15T09:50:04;22.10;31.00
10451;DHT22;5273;51.290;6.918;2023-02-15T09:52:44;22.30;31.30
10451;DHT22;5273;51.290;6.918;2023-02-15T09:55:31;22.20;31.10
10451;DHT22;5273;51.290;6.918;2023-02-15T09:58:07;21.90;31.00
10451;DHT22;5273;51.290;6.918;2023-02-15T10:00:46;22.00;31.20
10451;DHT22;5273;51.290;6.918;2023-02-15T10:03:30;22.40;30.90
10451;DHT22;5273;51.290;6.918;2023-02-15T10:06:11;22.60;30.30
10451;DHT22;5273;51.290;6.918;2023-02-15T10:08:52;22.60;29.80
10451;DHT22;5273;51.290;6.918;2023-02-15T10:11:27;22.80;29.90
10451;DHT22;5273;51.290;6.918;2023-02-15T10:14:32;23.10;31.00
10451;DHT22;5273;51.290;6.918;2023-02-15T10:17:10;24.00;29.40
10451;DHT22;5273;51.290;6.918;2023-02-15T10:19:44;24.40;29.20
10451;DHT22;5273;51.290;6.918;2023-02-15T10:22:22;24.60;28.70
10451;DHT22;5273;51.290;6.918;2023-02-15T10:25:27;24.90;28.40
10451;DHT22;5273;51.290;6.918;2023-02-15T10:27:57;24.80;28.70
10451;DHT22;5273;51.290;6.918;2023-02-15T10:30:36;24.90;28.50
10451;DHT22;5273;51.290;6.918;2023-02-15T10:33:16;25.10;30.00
10451;DHT22;5273;51.290;6.918;2023-02-15T10:35:54;24.50;28.80
10451;DHT22;5273;51.290;6.918;2023-02-15T10:38:29;24.30;28.70
10451;DHT22;5273;51.290;6.918;2023-02-15T10:41:07;24.70;28.00
10451;DHT22;5273;51.290;6.918;2023-02-15T10:43:46;24.40;28.50
10451;DHT22;5273;51.290;6.918;2023-02-15T10:46:28;24.50;29.10
10451;DHT22;5273;51.290;6.918;2023-02-15T10:52:07;24.00;27.70
10451;DHT22;5273;51.290;6.918;2023-02-15T10:54:45;23.10;29.20
10451;DHT22;5273;51.290;6.918;2023-02-15T10:57:19;23.00;30.00
10451;DHT22;5273;51.290;6.918;2023-02-15T11:00:09;23.00;30.00
10451;DHT22;5273;51.290;6.918;2023-02-15T11:03:00;22.80;29.20
10451;DHT22;5273;51.290;6.918;2023-02-15T11:05:41;22.50;29.90
10451;DHT22;5273;51.290;6.918;2023-02-15T11:08:10;22.20;30.30
10451;DHT22;5273;51.290;6.918;2023-02-15T11:10:39;22.10;30.50
10451;DHT22;5273;51.290;6.918;2023-02-15T11:13:11;22.30;31.70
10451;DHT22;5273;51.290;6.918;2023-02-15T11:15:43;22.20;30.30
10451;DHT22;5273;51.290;6.918;2023-02-15T11:18:15;22.10;30.40
10451;DHT22;5273;51.290;6.918;2023-02-15T11:20:50;22.00;31.80
10451;DHT22;5273;51.290;6.918;2023-02-15T11:25:54;22.30;31.00
10451;DHT22;5273;51.290;6.918;2023-02-15T11:28:25;22.40;31.50
10451;DHT22;5273;51.290;6.918;2023-02-15T11:30:55;22.40;32.20
10451;DHT22;5273;51.290;6.918;2023-02-15T11:33:27;22.10;31.10
10451;DHT22;5273;51.290;6.918;2023-02-15T11:35:59;21.50;32.60
10451;DHT22;5273;51.290;6.918;2023-02-15T11:38:29;20.80;34.10
10451;DHT22;5273;51.290;6.918;2023-02-15T11:41:02;20.20;35.00
10451;DHT22;5273;51.290;6.918;2023-02-15T11:43:34;19.70;36.90
10451;DHT22;5273;51.290;6.918;2023-02-15T11:48:31;18.90;38.40
10451;DHT22;5273;51.290;6.918;2023-02-15T11:50:59;18.50;39.10
10451;DHT22;5273;51.290;6.918;2023-02-15T11:53:28;18.30;39.40
10451;DHT22;5273;51.290;6.918;2023-02-15T11:58:30;18.10;39.00
10451;DHT22;5273;51.290;6.918;2023-02-15T12:01:04;17.90;39.60
10451;DHT22;5273;51.290;6.918;2023-02-15T12:03:45;17.70;41.00
10451;DHT22;5273;51.290;6.918;2023-02-15T12:06:18;17.50;41.30
10451;DHT22;5273;51.290;6.918;2023-02-15T12:08:51;17.30;40.40
10451;DHT22;5273;51.290;6.918;2023-02-15T12:11:22;17.10;41.70
10451;DHT22;5273;51.290;6.918;2023-02-15T12:13:56;16.90;41.80
10451;DHT22;5273;51.290;6.918;2023-02-15T12:18:53;16.60;41.60
10451;DHT22;5273;51.290;6.918;2023-02-15T12:21:27;16.60;43.00
10451;DHT22;5273;51.290;6.918;2023-02-15T12:23:57;16.50;43.20
10451;DHT22;5273;51.290;6.918;2023-02-15T12:26:26;19.00;44.80
10451;DHT22;5273;51.290;6.918;2023-02-15T12:28:54;16.40;42.60
10451;DHT22;5273;51.290;6.918;2023-02-15T12:31:26;16.20;43.50
10451;DHT22;5273;51.290;6.918;2023-02-15T12:33:57;16.20;45.10
10451;DHT22;5273;51.290;6.918;2023-02-15T12:36:30;16.30;44.40
10451;DHT22;5273;51.290;6.918;2023-02-15T12:39:17;16.30;44.40
10451;DHT22;5273;51.290;6.918;2023-02-15T12:41:46;16.10;44.00
10451;DHT22;5273;51.290;6.918;2023-02-15T12:44:17;16.00;43.60
10451;DHT22;5273;51.290;6.918;2023-02-15T12:46:56;15.90;44.40
10451;DHT22;5273;51.290;6.918;2023-02-15T12:49:26;16.00;45.00
10451;DHT22;5273;51.290;6.918;2023-02-15T12:51:54;16.00;44.20
10451;DHT22;5273;51.290;6.918;2023-02-15T12:54:36;16.00;43.90
10451;DHT22;5273;51.290;6.918;2023-02-15T12:57:29;15.90;46.10
10451;DHT22;5273;51.290;6.918;2023-02-15T12:59:58;15.90;45.80
10451;DHT22;5273;51.290;6.918;2023-02-15T13:02:28;15.90;45.00
10451;DHT22;5273;51.290;6.918;2023-02-15T13:05:04;16.00;45.90
10451;DHT22;5273;51.290;6.918;2023-02-15T13:12:30;15.80;45.40
10451;DHT22;5273;51.290;6.918;2023-02-15T13:17:30;15.90;45.50
10451;DHT22;5273;51.290;6.918;2023-02-15T13:20:06;15.90;44.70
10451;DHT22;5273;51.290;6.918;2023-02-15T13:22:38;15.90;45.60
10451;DHT22;5273;51.290;6.918;2023-02-15T13:25:13;15.90;47.20
10451;DHT22;5273;51.290;6.918;2023-02-15T13:27:43;15.90;45.40
10451;DHT22;5273;51.290;6.918;2023-02-15T13:30:22;16.00;46.50
10451;DHT22;5273;51.290;6.918;2023-02-15T13:32:51;16.00;46.50
10451;DHT22;5273;51.290;6.918;2023-02-15T13:35:22;15.90;46.40
10451;DHT22;5273;51.290;6.918;2023-02-15T13:38:08;15.90;46.10
10451;DHT22;5273;51.290;6.918;2023-02-15T13:40:43;15.70;45.70
10451;DHT22;5273;51.290;6.918;2023-02-15T13:43:24;15.70;45.40
10451;DHT22;5273;51.290;6.918;2023-02-15T13:46:07;15.60;45.70
10451;DHT22;5273;51.290;6.918;2023-02-15T13:48:44;15.60;45.90
10451;DHT22;5273;51.290;6.918;2023-02-15T13:51:21;15.60;45.70
10451;DHT22;5273;51.290;6.918;2023-02-15T13:54:00;15.70;46.70
10451;DHT22;5273;51.290;6.918;2023-02-15T13:56:40;15.70;46.70
10451;DHT22;5273;51.290;6.918;2023-02-15T13:59:22;15.70;47.40
10451;DHT22;5273;51.290;6.918;2023-02-15T14:01:56;15.60;48.10
10451;DHT22;5273;51.290;6.918;2023-02-15T14:04:53;15.60;47.10
10451;DHT22;5273;51.290;6.918;2023-02-15T14:07:49;15.50;46.90
10451;DHT22;5273;51.290;6.918;2023-02-15T14:10:27;15.50;45.80
10451;DHT22;5273;51.290;6.918;2023-02-15T14:13:10;15.40;45.90
10451;DHT22;5273;51.290;6.918;2023-02-15T14:15:44;15.40;46.70
10451;DHT22;5273;51.290;6.918;2023-02-15T14:18:19;15.40;48.30
10451;DHT22;5273;51.290;6.918;2023-02-15T14:20:57;15.50;47.30
10451;DHT22;5273;51.290;6.918;2023-02-15T14:23:39;15.50;46.80
10451;DHT22;5273;51.290;6.918;2023-02-15T14:26:13;15.50;47.00
10451;DHT22;5273;51.290;6.918;2023-02-15T14:28:48;15.60;46.50
10451;DHT22;5273;51.290;6.918;2023-02-15T14:31:19;15.60;47.40
10451;DHT22;5273;51.290;6.918;2023-02-15T14:33:53;15.50;46.80
10451;DHT22;5273;51.290;6.918;2023-02-15T14:36:22;15.40;47.40
10451;DHT22;5273;51.290;6.918;2023-02-15T14:39:04;15.50;48.10
10451;DHT22;5273;51.290;6.918;2023-02-15T14:41:53;15.40;48.20
10451;DHT22;5273;51.290;6.918;2023-02-15T14:44:29;15.40;48.00
10451;DHT22;5273;51.290;6.918;2023-02-15T14:47:00;15.40;47.50
10451;DHT22;5273;51.290;6.918;2023-02-15T14:49:33;15.40;48.00
10451;DHT22;5273;51.290;6.918;2023-02-15T14:52:03;15.40;48.60
10451;DHT22;5273;51.290;6.918;2023-02-15T14:54:59;15.40;48.00
10451;DHT22;5273;51.290;6.918;2023-02-15T14:57:35;15.40;48.00
10451;DHT22;5273;51.290;6.918;2023-02-15T15:00:28;15.30;47.90
10451;DHT22;5273;51.290;6.918;2023-02-15T15:05:31;15.30;48.10
10451;DHT22;5273;51.290;6.918;2023-02-15T15:08:01;15.30;48.50
10451;DHT22;5273;51.290;6.918;2023-02-15T15:10:40;15.20;48.50
10451;DHT22;5273;51.290;6.918;2023-02-15T15:13:37;15.20;48.50
10451;DHT22;5273;51.290;6.918;2023-02-15T15:16:23;15.10;47.40
10451;DHT22;5273;51.290;6.918;2023-02-15T15:21:51;14.90;48.10
10451;DHT22;5273;51.290;6.918;2023-02-15T15:24:46;13.50;46.70
10451;DHT22;5273;51.290;6.918;2023-02-15T15:27:40;14.80;48.90
10451;DHT22;5273;51.290;6.918;2023-02-15T15:30:49;14.70;48.80
10451;DHT22;5273;51.290;6.918;2023-02-15T15:39:55;14.60;49.60
10451;DHT22;5273;51.290;6.918;2023-02-15T15:42:33;14.60;50.20
10451;DHT22;5273;51.290;6.918;2023-02-15T15:45:38;14.70;50.50
10451;DHT22;5273;51.290;6.918;2023-02-15T15:48:29;14.70;50.40
10451;DHT22;5273;51.290;6.918;2023-02-15T15:51:00;14.70;50.50
10451;DHT22;5273;51.290;6.918;2023-02-15T15:53:31;14.70;50.40
10451;DHT22;5273;51.290;6.918;2023-02-15T15:56:01;14.70;50.40
10451;DHT22;5273;51.290;6.918;2023-02-15T16:01:03;14.40;51.10
10451;DHT22;5273;51.290;6.918;2023-02-15T16:08:28;14.00;52.40
10451;DHT22;5273;51.290;6.918;2023-02-15T16:15:51;13.60;52.80
10451;DHT22;5273;51.290;6.918;2023-02-15T16:18:23;13.60;52.80
10451;DHT22;5273;51.290;6.918;2023-02-15T16:20:52;13.50;53.40
10451;DHT22;5273;51.290;6.918;2023-02-15T16:23:39;13.40;53.30
10451;DHT22;5273;51.290;6.918;2023-02-15T16:26:17;13.30;53.20
10451;DHT22;5273;51.290;6.918;2023-02-15T16:28:49;13.20;53.60
10451;DHT22;5273;51.290;6.918;2023-02-15T16:31:17;13.10;53.70
10451;DHT22;5273;51.290;6.918;2023-02-15T16:33:46;13.10;54.10
10451;DHT22;5273;51.290;6.918;2023-02-15T16:36:20;13.00;54.10
10451;DHT22;5273;51.290;6.918;2023-02-15T16:41:45;12.90;54.60
10451;DHT22;5273;51.290;6.918;2023-02-15T16:44:16;12.90;54.90
10451;DHT22;5273;51.290;6.918;2023-02-15T16:46:47;12.80;54.70
10451;DHT22;5273;51.290;6.918;2023-02-15T16:49:19;12.80;55.00
10451;DHT22;5273;51.290;6.918;2023-02-15T16:51:56;12.70;55.00
10451;DHT22;5273;51.290;6.918;2023-02-15T16:54:24;12.60;55.20
10451;DHT22;5273;51.290;6.918;2023-02-15T16:56:52;12.50;55.40
10451;DHT22;5273;51.290;6.918;2023-02-15T16:59:28;12.50;55.90
10451;DHT22;5273;51.290;6.918;2023-02-15T17:04:29;12.40;56.40
10451;DHT22;5273;51.290;6.918;2023-02-15T17:07:03;12.30;56.40
10451;DHT22;5273;51.290;6.918;2023-02-15T17:14:28;12.20;57.30
10451;DHT22;5273;51.290;6.918;2023-02-15T17:16:59;12.20;57.40
10451;DHT22;5273;51.290;6.918;2023-02-15T17:19:30;12.20;57.30
10451;DHT22;5273;51.290;6.918;2023-02-15T17:22:00;12.10;57.40
10451;DHT22;5273;51.290;6.918;2023-02-15T17:24:35;12.10;57.60
10451;DHT22;5273;51.290;6.918;2023-02-15T17:27:05;12.10;57.70
10451;DHT22;5273;51.290;6.918;2023-02-15T17:29:35;12.10;57.60
10451;DHT22;5273;51.290;6.918;2023-02-15T17:32:04;12.10;57.40
10451;DHT22;5273;51.290;6.918;2023-02-15T17:34:47;12.10;57.40
10451;DHT22;5273;51.290;6.918;2023-02-15T17:37:24;12.00;57.80
10451;DHT22;5273;51.290;6.918;2023-02-15T17:47:15;11.80;58.60
10451;DHT22;5273;51.290;6.918;2023-02-15T17:49:45;11.70;58.80
10451;DHT22;5273;51.290;6.918;2023-02-15T17:54:42;11.60;58.90
10451;DHT22;5273;51.290;6.918;2023-02-15T17:57:27;11.60;59.00
10451;DHT22;5273;51.290;6.918;2023-02-15T18:05:26;11.40;59.60
10451;DHT22;5273;51.290;6.918;2023-02-15T18:08:13;11.30;59.80
10451;DHT22;5273;51.290;6.918;2023-02-15T18:16:14;11.20;60.70
10451;DHT22;5273;51.290;6.918;2023-02-15T18:18:43;11.10;60.80
10451;DHT22;5273;51.290;6.918;2023-02-15T18:21:12;11.10;61.00
10451;DHT22;5273;51.290;6.918;2023-02-15T18:26:09;10.90;61.30
10451;DHT22;5273;51.290;6.918;2023-02-15T18:33:35;10.70;62.30
10451;DHT22;5273;51.290;6.918;2023-02-15T18:36:04;10.60;62.80
10451;DHT22;5273;51.290;6.918;2023-02-15T18:38:33;10.50;63.60
10451;DHT22;5273;51.290;6.918;2023-02-15T18:41:01;10.40;63.90
10451;DHT22;5273;51.290;6.918;2023-02-15T18:53:20;10.30;66.10
10451;DHT22;5273;51.290;6.918;2023-02-15T18:55:48;10.20;65.80
10451;DHT22;5273;51.290;6.918;2023-02-15T18:58:17;10.20;66.00
10451;DHT22;5273;51.290;6.918;2023-02-15T19:03:12;10.20;66.70
10451;DHT22;5273;51.290;6.918;2023-02-15T19:05:40;10.20;66.80
10451;DHT22;5273;51.290;6.918;2023-02-15T19:08:15;10.10;67.00
10451;DHT22;5273;51.290;6.918;2023-02-15T19:13:11;10.00;67.80
10451;DHT22;5273;51.290;6.918;2023-02-15T19:15:39;9.90;69.40
10451;DHT22;5273;51.290;6.918;2023-02-15T19:20:36;9.80;70.10
10451;DHT22;5273;51.290;6.918;2023-02-15T19:23:05;9.70;70.50
10451;DHT22;5273;51.290;6.918;2023-02-15T19:25:35;9.70;70.90
10451;DHT22;5273;51.290;6.918;2023-02-15T19:28:08;9.60;71.50
10451;DHT22;5273;51.290;6.918;2023-02-15T19:30:36;9.60;72.00
10451;DHT22;5273;51.290;6.918;2023-02-15T19:35:33;9.60;72.30
10451;DHT22;5273;51.290;6.918;2023-02-15T19:38:03;9.60;72.30
10451;DHT22;5273;51.290;6.918;2023-02-15T19:43:12;9.50;72.60
10451;DHT22;5273;51.290;6.918;2023-02-15T19:45:42;9.50;72.80
10451;DHT22;5273;51.290;6.918;2023-02-15T19:48:10;9.40;73.20
10451;DHT22;5273;51.290;6.918;2023-02-15T19:55:33;9.30;74.10
10451;DHT22;5273;51.290;6.918;2023-02-15T19:58:01;9.30;74.70
10451;DHT22;5273;51.290;6.918;2023-02-15T20:00:30;9.10;75.10
10451;DHT22;5273;51.290;6.918;2023-02-15T20:02:58;9.10;75.70
10451;DHT22;5273;51.290;6.918;2023-02-15T20:05:27;9.00;76.70
10451;DHT22;5273;51.290;6.918;2023-02-15T20:07:55;8.90;77.10
10451;DHT22;5273;51.290;6.918;2023-02-15T20:10:25;8.90;77.10
10451;DHT22;5273;51.290;6.918;2023-02-15T20:12:53;9.00;78.00
10451;DHT22;5273;51.290;6.918;2023-02-15T20:15:21;9.00;77.50
10451;DHT22;5273;51.290;6.918;2023-02-15T20:20:17;8.90;77.50
10451;DHT22;5273;51.290;6.918;2023-02-15T20:22:45;8.90;78.20
10451;DHT22;5273;51.290;6.918;2023-02-15T20:25:17;8.90;78.40
10451;DHT22;5273;51.290;6.918;2023-02-15T20:30:17;8.90;78.50
10451;DHT22;5273;51.290;6.918;2023-02-15T20:35:14;8.90;79.00
10451;DHT22;5273;51.290;6.918;2023-02-15T20:37:42;8.80;79.10
10451;DHT22;5273;51.290;6.918;2023-02-15T20:40:15;8.80;79.50
10451;DHT22;5273;51.290;6.918;2023-02-15T20:45:15;8.70;80.50
10451;DHT22;5273;51.290;6.918;2023-02-15T20:50:14;8.60;81.20
10451;DHT22;5273;51.290;6.918;2023-02-15T20:52:43;8.50;81.50
10451;DHT22;5273;51.290;6.918;2023-02-15T20:55:14;8.50;81.90
10451;DHT22;5273;51.290;6.918;2023-02-15T21:00:13;8.50;82.50
10451;DHT22;5273;51.290;6.918;2023-02-15T21:05:15;8.50;82.60
10451;DHT22;5273;51.290;6.918;2023-02-15T21:07:44;8.40;82.80
10451;DHT22;5273;51.290;6.918;2023-02-15T21:10:16;8.30;83.50
10451;DHT22;5273;51.290;6.918;2023-02-15T21:12:43;8.30;84.10
10451;DHT22;5273;51.290;6.918;2023-02-15T21:15:30;8.30;84.00
10451;DHT22;5273;51.290;6.918;2023-02-15T21:17:59;8.30;84.50
10451;DHT22;5273;51.290;6.918;2023-02-15T21:20:27;8.30;84.70
10451;DHT22;5273;51.290;6.918;2023-02-15T21:22:56;8.30;84.70
10451;DHT22;5273;51.290;6.918;2023-02-15T21:25:28;8.30;84.90
10451;DHT22;5273;51.290;6.918;2023-02-15T21:30:23;8.40;85.10
10451;DHT22;5273;51.290;6.918;2023-02-15T21:35:19;8.30;85.30
10451;DHT22;5273;51.290;6.918;2023-02-15T21:37:47;8.30;85.50
10451;DHT22;5273;51.290;6.918;2023-02-15T21:40:19;8.20;85.30
10451;DHT22;5273;51.290;6.918;2023-02-15T21:53:31;8.10;86.70
10451;DHT22;5273;51.290;6.918;2023-02-15T21:56:01;8.10;87.20
10451;DHT22;5273;51.290;6.918;2023-02-15T21:58:31;8.10;87.20
10451;DHT22;5273;51.290;6.918;2023-02-15T22:00:59;8.00;87.10
10451;DHT22;5273;51.290;6.918;2023-02-15T22:03:31;8.00;87.30
10451;DHT22;5273;51.290;6.918;2023-02-15T22:10:53;6.30;86.90
10451;DHT22;5273;51.290;6.918;2023-02-15T22:13:26;7.80;88.60
10451;DHT22;5273;51.290;6.918;2023-02-15T22:18:23;7.70;89.30
10451;DHT22;5273;51.290;6.918;2023-02-15T22:25:48;7.60;90.10
10451;DHT22;5273;51.290;6.918;2023-02-15T22:30:44;7.60;90.20
10451;DHT22;5273;51.290;6.918;2023-02-15T22:33:21;7.60;90.40
10451;DHT22;5273;51.290;6.918;2023-02-15T22:40:44;7.50;90.80
10451;DHT22;5273;51.290;6.918;2023-02-15T22:43:20;7.40;90.90
10451;DHT22;5273;51.290;6.918;2023-02-15T22:45:49;4.60;89.70
10451;DHT22;5273;51.290;6.918;2023-02-15T22:48:20;7.40;91.10
10451;DHT22;5273;51.290;6.918;2023-02-15T22:58:15;7.30;91.40
10451;DHT22;5273;51.290;6.918;2023-02-15T23:03:15;7.30;91.60
10451;DHT22;5273;51.290;6.918;2023-02-15T23:10:38;7.30;91.70
10451;DHT22;5273;51.290;6.918;2023-02-15T23:13:16;7.30;91.80
10451;DHT22;5273;51.290;6.918;2023-02-15T23:15:55;7.30;91.90
10451;DHT22;5273;51.290;6.918;2023-02-15T23:18:27;7.30;91.90
10451;DHT22;5273;51.290;6.918;2023-02-15T23:20:56;7.30;92.00
10451;DHT22;5273;51.290;6.918;2023-02-15T23:23:27;7.20;91.90
10451;DHT22;5273;51.290;6.918;2023-02-15T23:28:25;7.20;92.00
10451;DHT22;5273;51.290;6.918;2023-02-15T23:33:21;7.30;92.00
10451;DHT22;5273;51.290;6.918;2023-02-15T23:35:50;7.20;92.00
10451;DHT22;5273;51.290;6.918;2023-02-15T23:38:18;7.20;92.20
10451;DHT22;5273;51.290;6.918;2023-02-15T23:40:49;7.20;92.10
10451;DHT22;5273;51.290;6.918;2023-02-15T23:46:02;7.10;92.10
10451;DHT22;5273;51.290;6.918;2023-02-15T23:48:33;7.00;92.40
10451;DHT22;5273;51.290;6.918;2023-02-15T23:51:02;7.00;92.50
10451;DHT22;5273;51.290;6.918;2023-02-15T23:58:34;6.90;92.90
